Bow Clipper — LAUU4 — position and weather

sailwx.info

Track history (hours):
 
Tides and Currents Weather Stations Pressure Air Temp Water Temp Dewpoint Dewpoint Depression Visibility Wind Speed Wind Dir Waves Ship Positions

Bow Clipper

Last reported at 2015-Mar-29 18:10 UTC. Time now 2015-Apr-01 16:37 UTC.
Position N 40°01' W 073°22'.

Length 188 m; draft 6.1 m.

Type: Ship (hazmat cat B). MMSI: 258946991.

Date/timePositionNaut miles runAvg speedWind from/ knotsBaromVisibWave heightAir tempDewpointWater temp
2015-Mar-29 18:10N 40°01' W 073°22'2514.6
2015-Mar-29 16:25N 40°21' W 073°43'1012.0
2015-Mar-29 15:33N 40°28' W 073°53'1111.4
2015-Mar-29 14:33N 40°37' W 074°03'2 1.4
2015-Mar-29 13:17N 40°38' W 074°04'0 0.0
2015-Mar-29 12:30N 40°38' W 074°04'0 0.0
2015-Mar-29 11:03N 40°38' W 074°04'0 0.1
2015-Mar-29 10:26N 40°38' W 074°04'0 0.1
2015-Mar-29 09:28N 40°38' W 074°04'0 0.0
2015-Mar-29 08:20N 40°38' W 074°04'0 0.1
2015-Mar-29 07:13N 40°38' W 074°04'0 0.0
2015-Mar-29 05:24N 40°38' W 074°04'0 0.0
2015-Mar-29 03:33N 40°38' W 074°04'0 0.0
2015-Mar-29 02:27N 40°38' W 074°04'0 0.1
2015-Mar-29 01:25N 40°38' W 074°04'0 0.0
2015-Mar-29 00:32N 40°38' W 074°04'0 0.0
2015-Mar-28 23:26N 40°38' W 074°04'0 0.0
2015-Mar-28 22:23N 40°38' W 074°04'0 0.1
2015-Mar-28 21:31N 40°38' W 074°04'2 1.6
2015-Mar-28 20:33N 40°39' W 074°06'5 5.5
2015-Mar-28 19:33N 40°36' W 074°12'1 1.1
2015-Mar-28 18:29N 40°35' W 074°13'0 0.0
2015-Mar-28 17:23N 40°35' W 074°13'0 0.0
2015-Mar-28 16:33N 40°35' W 074°13'0 0.0
2015-Mar-28 15:33N 40°35' W 074°13'0 0.0
2015-Mar-28 14:33N 40°35' W 074°13'0 0.0
2015-Mar-28 13:27N 40°35' W 074°13'0 0.0
2015-Mar-28 12:33N 40°35' W 074°13'0 0.0
2015-Mar-28 11:18N 40°35' W 074°13'0 0.0
2015-Mar-28 10:18N 40°35' W 074°13'0 0.0
2015-Mar-28 09:18N 40°35' W 074°13'0 0.0
2015-Mar-28 07:32N 40°35' W 074°13'0 0.0
2015-Mar-28 06:25N 40°35' W 074°13'2 2.7
2015-Mar-28 05:31N 40°33' W 074°15'2 0.8
2015-Mar-28 03:07N 40°31' W 074°15'0 0.0
2015-Mar-28 01:19N 40°31' W 074°15'0 0.0
2015-Mar-27 22:31N 40°31' W 074°15'0 0.0
2015-Mar-27 20:28N 40°31' W 074°15'0 0.0
2015-Mar-27 16:05N 40°31' W 074°15'0 0.0
2015-Mar-27 14:13N 40°31' W 074°15'0 0.0
2015-Mar-27 11:23N 40°31' W 074°15'7 0.9
2015-Mar-27 03:33N 40°29' W 074°06'1211.3
2015-Mar-27 02:29N 40°27' W 073°50'5 5.5
2015-Mar-27 01:31N 40°28' W 073°43'3 1.4
2015-Mar-26 23:12N 40°28' W 073°39'0 0.0
2015-Mar-26 22:30N 40°28' W 073°39'0 0.0
2015-Mar-26 21:33N 40°28' W 073°39'19 8.8
2015-Mar-26 19:27N 40°29' W 073°15'1212.9
2015-Mar-26 18:33N 40°31' W 072°59'1813.1
2015-Mar-26 17:12N 40°31' W 072°36'913.5
2015-Mar-26 16:34N 40°31' W 072°25'1413.6
2015-Mar-26 15:33N 40°31' W 072°07'1413.8
2015-Mar-26 14:33N 40°32' W 071°49'1413.7
2015-Mar-26 13:33N 40°32' W 071°31'1313.5
2015-Mar-26 12:33N 40°32' W 071°13'1313.3
2015-Mar-26 11:33N 40°32' W 070°56'1313.1
2015-Mar-26 10:33N 40°33' W 070°38'1313.2
2015-Mar-26 09:32N 40°33' W 070°21'1313.2
2015-Mar-26 08:33N 40°33' W 070°04'  
Track history (hours):
 
Tides and Currents Weather Stations Pressure Air Temp Water Temp Dewpoint Dewpoint Depression Visibility Wind Speed Wind Dir Waves Ship Positions

Bow Clipper

Last reported at 2015-Mar-29 18:10 UTC. Time now 2015-Apr-01 16:37 UTC.
Position N 40°01' W 073°22'.

Length 188 m; draft 6.1 m.

Type: Ship (hazmat cat B). MMSI: 258946991.

Date/timePositionNaut miles runAvg speedWind from/ knotsBaromVisibWave heightAir tempDewpointWater temp
2015-Mar-29 18:10N 40°01' W 073°22'2514.6
2015-Mar-29 16:25N 40°21' W 073°43'1012.0
2015-Mar-29 15:33N 40°28' W 073°53'1111.4
2015-Mar-29 14:33N 40°37' W 074°03'2 1.4
2015-Mar-29 13:17N 40°38' W 074°04'0 0.0
2015-Mar-29 12:30N 40°38' W 074°04'0 0.0
2015-Mar-29 11:03N 40°38' W 074°04'0 0.1
2015-Mar-29 10:26N 40°38' W 074°04'0 0.1
2015-Mar-29 09:28N 40°38' W 074°04'0 0.0
2015-Mar-29 08:20N 40°38' W 074°04'0 0.1
2015-Mar-29 07:13N 40°38' W 074°04'0 0.0
2015-Mar-29 05:24N 40°38' W 074°04'0 0.0
2015-Mar-29 03:33N 40°38' W 074°04'0 0.0
2015-Mar-29 02:27N 40°38' W 074°04'0 0.1
2015-Mar-29 01:25N 40°38' W 074°04'0 0.0
2015-Mar-29 00:32N 40°38' W 074°04'0 0.0
2015-Mar-28 23:26N 40°38' W 074°04'0 0.0
2015-Mar-28 22:23N 40°38' W 074°04'0 0.1
2015-Mar-28 21:31N 40°38' W 074°04'2 1.6
2015-Mar-28 20:33N 40°39' W 074°06'5 5.5
2015-Mar-28 19:33N 40°36' W 074°12'1 1.1
2015-Mar-28 18:29N 40°35' W 074°13'0 0.0
2015-Mar-28 17:23N 40°35' W 074°13'0 0.0
2015-Mar-28 16:33N 40°35' W 074°13'0 0.0
2015-Mar-28 15:33N 40°35' W 074°13'0 0.0
2015-Mar-28 14:33N 40°35' W 074°13'0 0.0
2015-Mar-28 13:27N 40°35' W 074°13'0 0.0
2015-Mar-28 12:33N 40°35' W 074°13'0 0.0
2015-Mar-28 11:18N 40°35' W 074°13'0 0.0
2015-Mar-28 10:18N 40°35' W 074°13'0 0.0
2015-Mar-28 09:18N 40°35' W 074°13'0 0.0
2015-Mar-28 07:32N 40°35' W 074°13'0 0.0
2015-Mar-28 06:25N 40°35' W 074°13'2 2.7
2015-Mar-28 05:31N 40°33' W 074°15'2 0.8
2015-Mar-28 03:07N 40°31' W 074°15'0 0.0
2015-Mar-28 01:19N 40°31' W 074°15'0 0.0
2015-Mar-27 22:31N 40°31' W 074°15'0 0.0
2015-Mar-27 20:28N 40°31' W 074°15'0 0.0
2015-Mar-27 16:05N 40°31' W 074°15'0 0.0
2015-Mar-27 14:13N 40°31' W 074°15'0 0.0
2015-Mar-27 11:23N 40°31' W 074°15'7 0.9
2015-Mar-27 03:33N 40°29' W 074°06'1211.3
2015-Mar-27 02:29N 40°27' W 073°50'5 5.5
2015-Mar-27 01:31N 40°28' W 073°43'3 1.4
2015-Mar-26 23:12N 40°28' W 073°39'0 0.0
2015-Mar-26 22:30N 40°28' W 073°39'0 0.0
2015-Mar-26 21:33N 40°28' W 073°39'19 8.8
2015-Mar-26 19:27N 40°29' W 073°15'1212.9
2015-Mar-26 18:33N 40°31' W 072°59'1813.1
2015-Mar-26 17:12N 40°31' W 072°36'913.5
2015-Mar-26 16:34N 40°31' W 072°25'1413.6
2015-Mar-26 15:33N 40°31' W 072°07'1413.8
2015-Mar-26 14:33N 40°32' W 071°49'1413.7
2015-Mar-26 13:33N 40°32' W 071°31'1313.5
2015-Mar-26 12:33N 40°32' W 071°13'1313.3
2015-Mar-26 11:33N 40°32' W 070°56'1313.1
2015-Mar-26 10:33N 40°33' W 070°38'1313.2
2015-Mar-26 09:32N 40°33' W 070°21'1313.2
2015-Mar-26 08:33N 40°33' W 070°04'  

Dump ship's entire track history